Terminal Aerodrome Forecast
Issued by NWS Knoxville/Tri Cities, TN

Home | Current Version | Previous Version | Text Only | Print | Product List | Glossary On
Versions: 1 2 3 4 5 6 7 8 9 10 11 12 13 14 15 16 17 18 19 20 21 22 23 24 25 26 27 28 29
000
FTUS44 KMRX 212320
TAFTRI
TAF
KTRI 212320Z 2200/2224 24008KT P6SM VCSH SCT040 BKN150
      TEMPO 2200/2203 4SM -SHRA BR BKN030 OVC050
     FM220300 29005KT P6SM SCT080 BKN250
     FM221400 32006KT P6SM BKN040=

USA.gov is the U.S. government's official web portal to all federal, state and local government web resources and services.